Millardsville, Pennsylvania
Current Conditions -  °F | °C
As of 3:58 AM on Thursday 18 Dec 2014 (Local Time) from KMUI Reporting Station
Overcast Overcast  
Wind Chill: -3°   Ceiling: 4400
Heat Index:   Visibility: 10mi
Dew Point: -8°   Wind: 10mph
Humidity: 49%   Direction: 290°WNW
Pressure: 30.03"   Gusts: 23mph
Location:  40.3869°N, 76.3173°W
Report Text: KMUI 180858Z AUTO 29009G20KT 10SM OVC044 01/M08 A3003 RMK AO2 SLP176 60000 T00121084 51006
Loading
Personal Weather Stations






























Interactive Weather Map New forecast layout! Learn more

10-Day Weather Forecast

Advertisements
Track Severe Weather on mobile